»·PEaware :: AAL720 KPSP-KBUR

AAL720 :: KPSP-KBUR

FLIGHT INFORMATION

Flight Status: Arrived
Operator:
American Airlines
More flights by this operator :: More flights under this callsign
Pilot: Shawn N. (11060)
Aircraft: BOEING 737-800
(B738)
More flights by this aircraft type
Origin: KPSP Palm Springs Intl
United States
Destination: KBUR Bob Hope-Burbank
United States
More flights between these airports :: More routes between these airports
Route: +CATH1 PSP V388 PDZ V197 POM V264 ITSME V186 VNY
File this flight plan on PilotEdge
Remarks:
Altitude:
(Current/Filed)
12,000ft
Speed:
(Current/Filed)
450kts
Departed: 15-Sep-17 09:01 PM
Arrived: 15-Sep-17 09:42 PM
Distance/Time
Traveled:
94nm/0:41
Distance/Time
To Go:
Arrived

Flight Plot

Page will automatically refresh every two minutes.


Map Options




Map Legend


Flown Route
Filed Route
Departure Airport
Arrival Airport
Navaid (VOR, NDB)
Fix

Horizontal Profiles

Position Reports

Time Latitude Longitude Heading Altitude Ground
Speed
15-Sep-17 20:38 33.822510 -116.506179 322 430ft 0kts
15-Sep-17 20:39 33.822510 -116.506179 322 430ft 0kts
15-Sep-17 20:40 33.822510 -116.506179 322 430ft 0kts
15-Sep-17 20:41 33.822510 -116.506179 322 430ft 0kts
15-Sep-17 20:42 33.822510 -116.506179 322 430ft 0kts
15-Sep-17 20:43 33.822510 -116.506179 322 430ft 0kts
15-Sep-17 20:44 33.822510 -116.506179 322 430ft 0kts
15-Sep-17 20:45 33.822510 -116.506179 322 430ft 0kts
15-Sep-17 20:46 33.822510 -116.506179 322 430ft 0kts
15-Sep-17 20:47 33.822510 -116.506179 322 430ft 0kts
15-Sep-17 20:48 33.822510 -116.506179 322 430ft 0kts
15-Sep-17 20:49 33.822080 -116.505902 358 430ft 2kts
15-Sep-17 20:50 33.821855 -116.505928 160 430ft 4kts
15-Sep-17 20:52 33.822459 -116.505659 175 430ft 0kts
15-Sep-17 20:53 33.822459 -116.505659 175 430ft 0kts
15-Sep-17 20:54 33.822459 -116.505659 175 430ft 0kts
15-Sep-17 20:55 33.822459 -116.505659 175 430ft 0kts
15-Sep-17 20:56 33.822459 -116.505659 175 430ft 0kts
15-Sep-17 20:57 33.822369 -116.505453 69 430ft 0kts
15-Sep-17 20:58 33.822907 -116.504522 59 430ft 7kts
15-Sep-17 20:59 33.820929 -116.501941 141 430ft 17kts
15-Sep-17 21:00 33.818616 -116.499818 124 430ft 4kts
15-Sep-17 21:01 33.818518 -116.499101 87 430ft 0kts
15-Sep-17 21:02 33.818544 -116.498528 84 430ft 6kts
15-Sep-17 21:03 33.819115 -116.498255 323 430ft 0kts
15-Sep-17 21:04 33.819160 -116.498294 323 430ft 0kts
15-Sep-17 21:05 33.820575 -116.499567 325 430ft 63kts
15-Sep-17 21:06 33.856158 -116.532632 319 2082ft 233kts
15-Sep-17 21:07 33.917439 -116.574436 359 5978ft 271kts
15-Sep-17 21:08 33.969469 -116.517587 82 6824ft 286kts
15-Sep-17 21:09 34.020761 -116.476324 331 7280ft 266kts
15-Sep-17 21:10 34.030769 -116.554222 242 11246ft 268kts
15-Sep-17 21:11 33.995656 -116.633213 242 11822ft 265kts
15-Sep-17 21:12 33.959126 -116.716441 244 11935ft 320kts
15-Sep-17 21:13 33.961228 -116.831504 277 12056ft 358kts
15-Sep-17 21:14 33.975381 -116.949318 278 12196ft 357kts
15-Sep-17 21:15 33.987673 -117.047451 278 12014ft 357kts
15-Sep-17 21:16 33.993118 -117.165203 256 12001ft 358kts
15-Sep-17 21:17 33.969379 -117.281529 257 12010ft 358kts
15-Sep-17 21:18 33.941465 -117.417276 257 11999ft 358kts
15-Sep-17 21:19 33.923170 -117.533369 280 11970ft 357kts
15-Sep-17 21:20 33.968080 -117.613716 309 12019ft 357kts
15-Sep-17 21:21 34.037974 -117.722316 306 11981ft 332kts
15-Sep-17 21:22 34.073311 -117.792248 277 11921ft 269kts
15-Sep-17 21:23 34.075645 -117.874680 271 11957ft 247kts
15-Sep-17 21:24 34.075433 -117.957096 270 11981ft 247kts
15-Sep-17 21:25 34.085277 -118.034699 290 11994ft 246kts
15-Sep-17 21:26 34.105890 -118.104117 290 11991ft 245kts
15-Sep-17 21:27 34.127405 -118.175315 291 11983ft 243kts
15-Sep-17 21:28 34.135219 -118.201059 291 11706ft 236kts
15-Sep-17 21:29 34.136016 -118.268528 262 10492ft 240kts
15-Sep-17 21:30 34.130880 -118.304982 262 9865ft 241kts
15-Sep-17 21:31 34.129156 -118.317231 262 9664ft 241kts
15-Sep-17 21:32 34.124296 -118.351792 262 9120ft 240kts
15-Sep-17 21:33 34.115139 -118.419921 272 8068ft 235kts
15-Sep-17 21:34 34.123464 -118.480382 282 6949ft 245kts
15-Sep-17 21:35 34.130935 -118.527386 282 6041ft 249kts
15-Sep-17 21:36 34.142504 -118.599295 282 4673ft 252kts
15-Sep-17 21:37 34.150751 -118.649914 282 3998ft 237kts
15-Sep-17 21:38 34.166299 -118.707755 338 3972ft 218kts
15-Sep-17 21:39 34.214035 -118.676480 52 3952ft 197kts
15-Sep-17 21:40 34.216211 -118.618327 92 4091ft 189kts
15-Sep-17 21:41 34.212307 -118.557756 100 3762ft 177kts
15-Sep-17 21:42 34.203252 -118.515701 102 3082ft 166kts
15-Sep-17 21:43 34.197402 -118.468448 89 2703ft 133kts
15-Sep-17 21:44 34.198304 -118.423326 89 1769ft 135kts
15-Sep-17 21:45 34.197946 -118.378895 90 929ft 132kts
15-Sep-17 21:46 34.197707 -118.355480 88 709ft 21kts
15-Sep-17 21:47 34.197171 -118.352314 91 701ft 0kts
15-Sep-17 21:48 34.196803 -118.351924 180 700ft 0kts

Navigation Log

Ident Type
1. KPSP Airport
2. PSP Navaid
3. DEWAY Fix
4. ACINS Fix
5. LENHO Fix
6. KNDAL Fix
7. PDZ Navaid
8. POM Navaid
9. COVIN Fix
10. HOPUN Fix
11. ITSME Fix
12. ELMOO Fix
13. PURMS Fix
14. DARTS Fix
15. VNY Navaid
16. KBUR Airport